createdAt,value
2022-12-14T00:00:46.901Z,-2.26
2022-12-14T00:01:49.497Z,-2.15
2022-12-14T00:02:46.957Z,-2.24
2022-12-14T00:03:46.824Z,-2.23
2022-12-14T00:04:46.726Z,-2.24
2022-12-14T00:05:46.693Z,-2.24
2022-12-14T00:06:46.661Z,-2.24
2022-12-14T00:07:46.626Z,-2.21
2022-12-14T00:08:46.600Z,-2.20
2022-12-14T00:09:46.568Z,-2.20
2022-12-14T00:10:46.544Z,-2.26
2022-12-14T00:11:46.508Z,-2.16
2022-12-14T00:12:46.484Z,-2.26
2022-12-14T00:13:49.150Z,-2.20
2022-12-14T00:14:46.422Z,-2.20
2022-12-14T00:15:46.529Z,-2.20
2022-12-14T00:16:46.358Z,-2.20
2022-12-14T00:17:46.322Z,-2.23
2022-12-14T00:18:46.295Z,-2.20
2022-12-14T00:19:48.920Z,-2.20
2022-12-14T00:20:46.241Z,-2.20
2022-12-14T00:21:46.202Z,-2.15
2022-12-14T00:22:46.176Z,-2.15
2022-12-14T00:23:46.143Z,-2.26
2022-12-14T00:24:46.115Z,-2.23
2022-12-14T00:25:46.081Z,-2.24
2022-12-14T00:26:46.052Z,-2.21
2022-12-14T00:27:46.024Z,-2.20
2022-12-14T00:28:45.996Z,-2.23
2022-12-14T00:29:45.962Z,-2.24
2022-12-14T00:30:45.977Z,-2.16
2022-12-14T00:31:48.822Z,-2.18
2022-12-14T00:32:45.871Z,-2.10
2022-12-14T00:33:45.837Z,-2.20
2022-12-14T00:34:45.810Z,-2.23
2022-12-14T00:35:45.780Z,-2.21
2022-12-14T00:36:45.754Z,-2.10
2022-12-14T00:37:45.717Z,-2.21
2022-12-14T00:38:45.693Z,-2.18
2022-12-14T00:39:45.657Z,-2.23
2022-12-14T00:40:45.636Z,-2.16
2022-12-14T00:41:45.602Z,-2.20
2022-12-14T00:42:45.572Z,-2.10
2022-12-14T00:43:45.539Z,-2.23
2022-12-14T00:44:45.505Z,-2.16
2022-12-14T00:45:45.478Z,-2.24
2022-12-14T00:46:45.456Z,-2.20
2022-12-14T00:47:45.437Z,-2.13
2022-12-14T00:48:45.391Z,-2.10
2022-12-14T00:49:45.353Z,-2.00
2022-12-14T00:50:48.559Z,-2.08
2022-12-14T00:51:45.300Z,-2.12
2022-12-14T00:52:45.263Z,-2.13
2022-12-14T00:53:45.235Z,-2.09
2022-12-14T00:54:45.202Z,-2.09
2022-12-14T00:55:49.374Z,-2.10
2022-12-14T00:56:45.149Z,-2.13
2022-12-14T00:57:45.112Z,-2.00
2022-12-14T00:58:45.089Z,-2.00
2022-12-14T00:59:45.049Z,-1.98
2022-12-14T01:00:45.028Z,-1.95
2022-12-14T01:01:45.109Z,-1.91
2022-12-14T01:02:45.061Z,-1.92
2022-12-14T01:03:44.994Z,-1.90
2022-12-14T01:04:44.902Z,-1.92
2022-12-14T01:05:49.373Z,-1.80
2022-12-14T01:06:44.839Z,-1.92
2022-12-14T01:07:44.806Z,-2.00
2022-12-14T01:08:44.777Z,-1.97
2022-12-14T01:09:44.744Z,-1.92
2022-12-14T01:10:44.719Z,-1.85
2022-12-14T01:11:44.684Z,-1.97
2022-12-14T01:12:44.653Z,-1.87
2022-12-14T01:13:44.630Z,-1.95
2022-12-14T01:14:44.596Z,-1.87
2022-12-14T01:15:44.602Z,-1.94
2022-12-14T01:16:44.537Z,-1.88
2022-12-14T01:17:44.509Z,-1.85
2022-12-14T01:18:44.476Z,-1.95
2022-12-14T01:19:44.466Z,-1.80
2022-12-14T01:20:44.409Z,-1.77
2022-12-14T01:21:44.395Z,-1.80
2022-12-14T01:22:44.353Z,-1.77
2022-12-14T01:23:44.331Z,-1.80
2022-12-14T01:24:44.290Z,-1.80
2022-12-14T01:25:44.267Z,-1.76
2022-12-14T01:26:44.237Z,-1.80
2022-12-14T01:27:44.204Z,-1.77
2022-12-14T01:28:44.173Z,-1.76
2022-12-14T01:29:44.146Z,-1.80
2022-12-14T01:30:44.118Z,-1.82
2022-12-14T01:31:44.083Z,-1.87
2022-12-14T01:32:44.054Z,-1.80
2022-12-14T01:33:44.023Z,-1.82
2022-12-14T01:34:43.990Z,-1.80
2022-12-14T01:35:43.983Z,-1.85
2022-12-14T01:36:43.930Z,-1.92
2022-12-14T01:37:43.900Z,-2.00
2022-12-14T01:38:43.870Z,-1.98
2022-12-14T01:39:43.837Z,-1.98
2022-12-14T01:40:43.808Z,-1.98
2022-12-14T01:41:43.779Z,-1.95
2022-12-14T01:42:43.744Z,-1.91
2022-12-14T01:43:43.720Z,-1.94
2022-12-14T01:44:43.686Z,-2.15
2022-12-14T01:45:43.660Z,-2.05
2022-12-14T01:46:43.678Z,-2.02
2022-12-14T01:47:43.595Z,-2.00
2022-12-14T01:48:43.561Z,-2.10
2022-12-14T01:49:43.534Z,-2.00
2022-12-14T01:50:43.505Z,-2.05
2022-12-14T01:51:43.504Z,-2.00
2022-12-14T01:52:43.442Z,-2.00
2022-12-14T01:53:43.414Z,-1.91
2022-12-14T01:54:43.386Z,-1.98
2022-12-14T01:55:45.130Z,-1.97
2022-12-14T01:56:43.324Z,-2.02
2022-12-14T01:57:43.299Z,-1.97
2022-12-14T01:58:43.263Z,-1.98
2022-12-14T01:59:43.234Z,-2.05
2022-12-14T02:00:43.204Z,-2.12
2022-12-14T02:01:43.237Z,-2.15
2022-12-14T02:02:43.324Z,-2.24
2022-12-14T02:03:43.160Z,-2.27
2022-12-14T02:04:43.080Z,-2.23
2022-12-14T02:05:43.067Z,-2.16
2022-12-14T02:06:43.018Z,-2.16
2022-12-14T02:07:43.015Z,-2.23
2022-12-14T02:08:42.959Z,-2.16
2022-12-14T02:09:42.932Z,-2.16
2022-12-14T02:10:42.897Z,-2.24
2022-12-14T02:11:42.866Z,-2.18
2022-12-14T02:12:42.837Z,-2.15
2022-12-14T02:13:42.813Z,-2.23
2022-12-14T02:14:42.778Z,-2.15
2022-12-14T02:15:42.750Z,-2.09
2022-12-14T02:16:42.723Z,-2.12
2022-12-14T02:17:42.690Z,-2.18
2022-12-14T02:18:42.661Z,-2.09
2022-12-14T02:19:42.628Z,-2.08
2022-12-14T02:20:42.595Z,-2.15
2022-12-14T02:21:42.564Z,-2.08
2022-12-14T02:22:42.530Z,-2.15
2022-12-14T02:23:42.524Z,-2.13
2022-12-14T02:24:42.473Z,-2.12
2022-12-14T02:25:42.445Z,-2.23
2022-12-14T02:26:42.411Z,-2.30
2022-12-14T02:27:42.383Z,-2.21
2022-12-14T02:28:42.350Z,-2.13
2022-12-14T02:29:42.326Z,-2.16
2022-12-14T02:30:42.298Z,-2.20
2022-12-14T02:31:42.308Z,-2.09
2022-12-14T02:32:42.234Z,-2.16
2022-12-14T02:33:42.201Z,-2.08
2022-12-14T02:34:42.169Z,-2.05
2022-12-14T02:35:42.142Z,-2.08
2022-12-14T02:36:42.113Z,-2.03
2022-12-14T02:37:42.078Z,-2.05
2022-12-14T02:38:42.047Z,-1.98
2022-12-14T02:39:42.045Z,-2.02
2022-12-14T02:40:41.989Z,-1.95
2022-12-14T02:41:41.960Z,-2.00
2022-12-14T02:42:41.925Z,-1.94
2022-12-14T02:43:41.900Z,-1.95
2022-12-14T02:44:41.869Z,-1.90
2022-12-14T02:45:41.841Z,-1.92
2022-12-14T02:46:45.085Z,-1.95
2022-12-14T02:47:41.774Z,-1.79
2022-12-14T02:48:41.750Z,-1.82
2022-12-14T02:49:41.719Z,-1.85
2022-12-14T02:50:41.684Z,-1.84
2022-12-14T02:51:41.659Z,-1.90
2022-12-14T02:52:41.624Z,-1.91
2022-12-14T02:53:41.601Z,-1.94
2022-12-14T02:54:41.561Z,-1.92
2022-12-14T02:55:41.556Z,-1.87
2022-12-14T02:56:41.502Z,-2.00
2022-12-14T02:57:41.473Z,-2.00
2022-12-14T02:58:41.439Z,-1.98
2022-12-14T02:59:41.417Z,-2.02
2022-12-14T03:00:41.456Z,-2.16
2022-12-14T03:01:41.622Z,-2.15
2022-12-14T03:02:41.385Z,-2.23
2022-12-14T03:03:41.298Z,-2.23
2022-12-14T03:04:41.258Z,-2.24
2022-12-14T03:05:41.238Z,-2.23
2022-12-14T03:06:41.204Z,-2.20
2022-12-14T03:07:41.171Z,-2.32
2022-12-14T03:08:41.143Z,-2.26
2022-12-14T03:09:41.108Z,-2.21
2022-12-14T03:10:41.076Z,-2.27
2022-12-14T03:11:41.070Z,-2.39
2022-12-14T03:12:41.022Z,-2.27
2022-12-14T03:13:40.989Z,-2.21
2022-12-14T03:14:40.956Z,-2.18
2022-12-14T03:15:40.928Z,-2.15
2022-12-14T03:16:40.943Z,-2.13
2022-12-14T03:17:40.869Z,-2.20
2022-12-14T03:18:40.839Z,-2.10
2022-12-14T03:19:40.816Z,-2.13
2022-12-14T03:20:40.779Z,-2.12
2022-12-14T03:21:40.750Z,-2.16
2022-12-14T03:22:40.711Z,-2.15
2022-12-14T03:23:40.685Z,-2.13
2022-12-14T03:24:40.655Z,-2.20
2022-12-14T03:25:40.628Z,-2.16
2022-12-14T03:26:45.654Z,-2.21
2022-12-14T03:27:40.585Z,-2.12
2022-12-14T03:28:40.535Z,-2.20
2022-12-14T03:29:40.499Z,-2.21
2022-12-14T03:30:59.506Z,-2.20
2022-12-14T03:31:40.544Z,-2.23
2022-12-14T03:32:40.413Z,-2.35
2022-12-14T03:33:40.383Z,-2.37
2022-12-14T03:34:40.353Z,-2.35
2022-12-14T03:35:40.322Z,-2.30
2022-12-14T03:36:40.286Z,-2.43
2022-12-14T03:37:40.257Z,-2.40
2022-12-14T03:38:40.228Z,-2.40
2022-12-14T03:39:40.203Z,-2.29
2022-12-14T03:40:40.166Z,-2.37
2022-12-14T03:41:40.141Z,-2.34
2022-12-14T03:42:40.106Z,-2.37
2022-12-14T03:43:40.097Z,-2.34
2022-12-14T03:44:48.915Z,-2.39
2022-12-14T03:45:40.070Z,-2.34
2022-12-14T03:46:39.980Z,-2.34
2022-12-14T03:47:39.958Z,-2.39
2022-12-14T03:48:39.934Z,-2.37
2022-12-14T03:49:39.895Z,-2.34
2022-12-14T03:50:39.860Z,-2.21
2022-12-14T03:51:39.832Z,-2.26
2022-12-14T03:52:39.806Z,-2.34
2022-12-14T03:53:39.778Z,-2.27
2022-12-14T03:54:39.740Z,-2.21
2022-12-14T03:55:39.713Z,-2.23
2022-12-14T03:56:39.683Z,-2.21
2022-12-14T03:57:39.652Z,-2.29
2022-12-14T03:58:39.618Z,-2.23
2022-12-14T03:59:39.614Z,-2.15
2022-12-14T04:00:39.645Z,-2.15
2022-12-14T04:01:39.652Z,-2.10
2022-12-14T04:02:41.146Z,-2.23
2022-12-14T04:03:39.472Z,-2.16
2022-12-14T04:04:39.440Z,-2.15
2022-12-14T04:05:42.907Z,-2.12
2022-12-14T04:06:39.378Z,-2.15
2022-12-14T04:07:39.348Z,-2.16
2022-12-14T04:08:39.317Z,-2.16
2022-12-14T04:09:39.285Z,-2.16
2022-12-14T04:10:39.260Z,-2.21
2022-12-14T04:11:39.228Z,-2.18
2022-12-14T04:12:39.202Z,-2.12
2022-12-14T04:13:39.166Z,-2.15
2022-12-14T04:14:39.130Z,-2.13
2022-12-14T04:15:39.128Z,-2.08
2022-12-14T04:16:39.099Z,-2.03
2022-12-14T04:17:39.047Z,-1.88
2022-12-14T04:18:39.013Z,-2.10
2022-12-14T04:19:38.984Z,-2.08
2022-12-14T04:20:38.946Z,-2.12
2022-12-14T04:21:38.919Z,-2.05
2022-12-14T04:22:38.885Z,-2.12
2022-12-14T04:23:38.860Z,-2.15
2022-12-14T04:24:38.825Z,-2.16
2022-12-14T04:25:38.802Z,-2.21
2022-12-14T04:26:38.773Z,-2.15
2022-12-14T04:27:38.740Z,-2.08
2022-12-14T04:28:38.702Z,-2.00
2022-12-14T04:29:41.530Z,-2.12
2022-12-14T04:30:38.646Z,-2.03
2022-12-14T04:31:38.715Z,-2.02
2022-12-14T04:32:38.634Z,-2.03
2022-12-14T04:33:38.560Z,-1.91
2022-12-14T04:34:38.528Z,-2.06
2022-12-14T04:35:38.497Z,-2.09
2022-12-14T04:36:38.465Z,-2.15
2022-12-14T04:37:38.434Z,-2.09
2022-12-14T04:38:38.409Z,-2.06
2022-12-14T04:39:38.375Z,-2.15
2022-12-14T04:40:38.340Z,-2.21
2022-12-14T04:41:38.312Z,-2.15
2022-12-14T04:42:38.281Z,-2.21
2022-12-14T04:43:38.253Z,-2.35
2022-12-14T04:44:38.217Z,-2.21
2022-12-14T04:45:38.244Z,-2.27
2022-12-14T04:46:40.706Z,-2.24
2022-12-14T04:47:38.147Z,-2.21
2022-12-14T04:48:38.099Z,-2.24
2022-12-14T04:49:38.072Z,-2.21
2022-12-14T04:50:38.041Z,-2.20
2022-12-14T04:51:38.009Z,-2.20
2022-12-14T04:52:37.980Z,-2.20
2022-12-14T04:53:37.948Z,-2.21
2022-12-14T04:54:37.918Z,-2.27
2022-12-14T04:55:37.895Z,-2.29
2022-12-14T04:56:37.858Z,-2.26
2022-12-14T04:57:37.824Z,-2.35
2022-12-14T04:58:37.794Z,-2.24
2022-12-14T04:59:37.767Z,-2.29
2022-12-14T05:00:37.731Z,-2.34
2022-12-14T05:01:37.803Z,-2.32
2022-12-14T05:02:37.807Z,-2.20
2022-12-14T05:03:37.664Z,-2.42
2022-12-14T05:04:37.613Z,-2.46
2022-12-14T05:05:37.581Z,-2.48
2022-12-14T05:06:37.551Z,-2.49
2022-12-14T05:07:37.525Z,-2.58
2022-12-14T05:08:37.495Z,-2.50
2022-12-14T05:09:37.465Z,-2.58
2022-12-14T05:10:37.430Z,-2.55
2022-12-14T05:11:53.255Z,-2.52
2022-12-14T05:12:37.365Z,-2.52
2022-12-14T05:13:37.346Z,-2.56
2022-12-14T05:14:37.305Z,-2.55
2022-12-14T05:15:37.278Z,-2.66
2022-12-14T05:16:37.295Z,-2.53
2022-12-14T05:17:37.220Z,-2.50
2022-12-14T05:18:37.184Z,-2.52
2022-12-14T05:19:37.214Z,-2.49
2022-12-14T05:20:37.125Z,-2.55
2022-12-14T05:21:37.100Z,-2.52
2022-12-14T05:22:37.061Z,-2.55
2022-12-14T05:23:37.037Z,-2.60
2022-12-14T05:24:36.999Z,-2.71
2022-12-14T05:25:36.975Z,-2.67
2022-12-14T05:26:36.940Z,-2.61
2022-12-14T05:27:36.913Z,-2.60
2022-12-14T05:28:36.888Z,-2.63
2022-12-14T05:29:36.854Z,-2.79
2022-12-14T05:30:36.981Z,-2.71
2022-12-14T05:31:36.792Z,-2.71
2022-12-14T05:32:36.763Z,-2.67
2022-12-14T05:33:36.725Z,-2.68
2022-12-14T05:34:36.697Z,-2.64
2022-12-14T05:35:36.684Z,-2.61
2022-12-14T05:36:36.646Z,-2.66
2022-12-14T05:37:36.607Z,-2.61
2022-12-14T05:38:36.579Z,-2.52
2022-12-14T05:39:36.543Z,-2.49
2022-12-14T05:40:36.516Z,-2.52
2022-12-14T05:41:36.483Z,-2.56
2022-12-14T05:42:42.610Z,-2.43
2022-12-14T05:43:36.423Z,-2.46
2022-12-14T05:44:36.394Z,-2.49
2022-12-14T05:45:36.381Z,-2.43
2022-12-14T05:46:36.333Z,-2.42
2022-12-14T05:47:36.297Z,-2.52
2022-12-14T05:48:36.270Z,-2.52
2022-12-14T05:49:36.239Z,-2.43
2022-12-14T05:50:36.207Z,-2.45
2022-12-14T05:51:36.206Z,-2.39
2022-12-14T05:52:36.157Z,-2.48
2022-12-14T05:53:36.116Z,-2.49
2022-12-14T05:54:36.094Z,-2.45
2022-12-14T05:55:36.055Z,-2.48
2022-12-14T05:56:36.031Z,-2.50
2022-12-14T05:57:36.003Z,-2.45
2022-12-14T05:58:35.969Z,-2.39
2022-12-14T05:59:35.939Z,-2.42
2022-12-14T06:00:35.911Z,-2.40
2022-12-14T06:01:35.926Z,-2.32
2022-12-14T06:02:35.869Z,-2.40
2022-12-14T06:03:35.808Z,-2.34
2022-12-14T06:04:35.859Z,-2.35
2022-12-14T06:05:35.750Z,-2.48
2022-12-14T06:06:35.725Z,-2.55
2022-12-14T06:07:35.713Z,-2.77
2022-12-14T06:08:35.659Z,-2.91
2022-12-14T06:09:35.624Z,-2.96
2022-12-14T06:10:35.602Z,-2.89
2022-12-14T06:11:35.563Z,-2.97
2022-12-14T06:12:35.542Z,-2.94
2022-12-14T06:13:35.511Z,-2.96
2022-12-14T06:14:35.484Z,-2.92
2022-12-14T06:15:35.517Z,-2.91
2022-12-14T06:16:35.423Z,-2.91
2022-12-14T06:17:35.387Z,-2.94
2022-12-14T06:18:35.357Z,-2.96
2022-12-14T06:19:35.341Z,-2.99
2022-12-14T06:20:35.296Z,-2.94
2022-12-14T06:21:35.269Z,-3.07
2022-12-14T06:22:35.229Z,-3.05
2022-12-14T06:23:35.219Z,-2.99
2022-12-14T06:24:35.174Z,-3.07
2022-12-14T06:25:35.143Z,-2.96
2022-12-14T06:26:35.110Z,-2.99
2022-12-14T06:27:35.079Z,-2.96
2022-12-14T06:28:35.048Z,-2.94
2022-12-14T06:29:35.015Z,-2.92
2022-12-14T06:30:34.988Z,-2.86
2022-12-14T06:31:34.956Z,-2.88
2022-12-14T06:32:34.937Z,-2.92
2022-12-14T06:33:34.898Z,-2.89
2022-12-14T06:34:39.044Z,-2.91
2022-12-14T06:35:34.829Z,-2.86
2022-12-14T06:36:34.809Z,-2.92
2022-12-14T06:37:34.772Z,-2.86
2022-12-14T06:38:34.748Z,-2.85
2022-12-14T06:39:34.732Z,-2.89
2022-12-14T06:40:34.689Z,-2.84
2022-12-14T06:41:34.647Z,-2.84
2022-12-14T06:42:34.620Z,-2.81
2022-12-14T06:43:34.589Z,-2.79
2022-12-14T06:44:34.561Z,-2.71
2022-12-14T06:45:34.529Z,-2.73
2022-12-14T06:46:34.538Z,-2.63
2022-12-14T06:47:34.471Z,-2.61
2022-12-14T06:48:34.437Z,-2.66
2022-12-14T06:49:34.484Z,-2.66
2022-12-14T06:50:34.374Z,-2.55
2022-12-14T06:51:34.339Z,-2.49
2022-12-14T06:52:34.315Z,-2.50
2022-12-14T06:53:34.280Z,-2.52
2022-12-14T06:54:34.257Z,-2.43
2022-12-14T06:55:34.246Z,-2.52
2022-12-14T06:56:34.194Z,-2.49
2022-12-14T06:57:34.159Z,-2.55
2022-12-14T06:58:34.134Z,-2.45
2022-12-14T06:59:34.097Z,-2.43
2022-12-14T07:00:34.072Z,-2.37
2022-12-14T07:01:34.120Z,-2.42
2022-12-14T07:02:34.252Z,-2.40
2022-12-14T07:03:34.021Z,-2.34
2022-12-14T07:04:33.947Z,-2.48
2022-12-14T07:05:33.909Z,-2.27
2022-12-14T07:06:33.891Z,-2.27
2022-12-14T07:07:33.850Z,-2.30
2022-12-14T07:08:33.826Z,-2.34
2022-12-14T07:09:33.803Z,-2.34
2022-12-14T07:10:33.770Z,-2.30
2022-12-14T07:11:33.756Z,-2.24
2022-12-14T07:12:33.702Z,-2.29
2022-12-14T07:13:33.676Z,-2.20
2022-12-14T07:14:33.645Z,-2.34
2022-12-14T07:15:33.696Z,-2.29
2022-12-14T07:16:33.585Z,-2.21
2022-12-14T07:17:33.555Z,-2.23
2022-12-14T07:18:33.524Z,-2.23
2022-12-14T07:19:33.485Z,-2.29
2022-12-14T07:20:33.460Z,-2.15
2022-12-14T07:21:33.424Z,-2.16
2022-12-14T07:22:33.400Z,-2.09
2022-12-14T07:23:33.781Z,-2.15
2022-12-14T07:24:33.357Z,-2.15
2022-12-14T07:25:33.303Z,-2.13
2022-12-14T07:26:33.275Z,-2.16
2022-12-14T07:27:33.275Z,-2.15
2022-12-14T07:28:33.215Z,-2.20
2022-12-14T07:29:34.936Z,-2.20
2022-12-14T07:30:33.154Z,-2.13
2022-12-14T07:31:33.159Z,-2.15
2022-12-14T07:32:33.094Z,-2.09
2022-12-14T07:33:33.064Z,-2.20
2022-12-14T07:34:33.036Z,-2.23
2022-12-14T07:35:32.997Z,-2.24
2022-12-14T07:36:32.977Z,-2.20
2022-12-14T07:37:32.940Z,-2.24
2022-12-14T07:38:32.914Z,-2.24
2022-12-14T07:39:32.875Z,-2.29
2022-12-14T07:40:32.846Z,-2.37
2022-12-14T07:41:32.823Z,-2.21
2022-12-14T07:42:32.784Z,-2.24
2022-12-14T07:43:32.777Z,-2.21
2022-12-14T07:44:32.731Z,-2.27
2022-12-14T07:45:32.693Z,-2.27
2022-12-14T07:46:32.798Z,-2.24
2022-12-14T07:47:32.629Z,-2.23
2022-12-14T07:48:32.607Z,-2.20
2022-12-14T07:49:32.570Z,-2.20
2022-12-14T07:50:32.550Z,-2.26
2022-12-14T07:51:32.513Z,-2.13
2022-12-14T07:52:37.301Z,-2.23
2022-12-14T07:53:32.445Z,-2.16
2022-12-14T07:54:32.422Z,-2.12
2022-12-14T07:55:32.388Z,-2.18
2022-12-14T07:56:32.361Z,-2.06
2022-12-14T07:57:32.326Z,-2.15
2022-12-14T07:58:32.301Z,-1.94
2022-12-14T07:59:32.287Z,-2.02
2022-12-14T08:00:32.242Z,-2.02
2022-12-14T08:01:32.406Z,-1.98
2022-12-14T08:02:32.329Z,-2.02
2022-12-14T08:03:32.446Z,-1.94
2022-12-14T08:04:32.166Z,-1.95
2022-12-14T08:05:32.083Z,-1.98
2022-12-14T08:06:32.060Z,-1.95
2022-12-14T08:07:32.025Z,-2.00
2022-12-14T08:08:32.001Z,-1.92
2022-12-14T08:09:31.961Z,-1.90
2022-12-14T08:10:35.759Z,-1.84
2022-12-14T08:11:31.903Z,-1.87
2022-12-14T08:12:31.877Z,-1.87
2022-12-14T08:13:32.227Z,-1.95
2022-12-14T08:14:31.812Z,-1.94
2022-12-14T08:15:31.803Z,-1.90
2022-12-14T08:16:31.839Z,-2.00
2022-12-14T08:17:31.719Z,-1.94
2022-12-14T08:18:31.687Z,-1.88
2022-12-14T08:19:31.656Z,-1.92
2022-12-14T08:20:31.627Z,-2.02
2022-12-14T08:21:31.596Z,-1.90
2022-12-14T08:22:31.569Z,-2.03
2022-12-14T08:23:32.170Z,-1.90
2022-12-14T08:24:31.508Z,-1.95
2022-12-14T08:25:31.472Z,-1.91
2022-12-14T08:26:35.529Z,-1.98
2022-12-14T08:27:31.414Z,-2.00
2022-12-14T08:28:31.385Z,-1.87
2022-12-14T08:29:31.350Z,-1.85
2022-12-14T08:30:31.326Z,-1.85
2022-12-14T08:31:31.381Z,-1.80
2022-12-14T08:32:34.421Z,-1.82
2022-12-14T08:33:31.895Z,-1.79
2022-12-14T08:34:31.209Z,-1.76
2022-12-14T08:35:31.172Z,-1.72
2022-12-14T08:36:31.161Z,-1.72
2022-12-14T08:37:31.106Z,-1.66
2022-12-14T08:38:31.084Z,-1.67
2022-12-14T08:39:31.050Z,-1.69
2022-12-14T08:40:31.025Z,-1.69
2022-12-14T08:41:30.993Z,-1.72
2022-12-14T08:42:30.966Z,-1.72
2022-12-14T08:43:31.353Z,-1.67
2022-12-14T08:44:30.903Z,-1.73
2022-12-14T08:45:30.866Z,-1.79
2022-12-14T08:46:30.922Z,-1.80
2022-12-14T08:47:30.826Z,-1.82
2022-12-14T08:48:30.781Z,-1.82
2022-12-14T08:49:32.397Z,-1.87
2022-12-14T08:50:30.728Z,-1.85
2022-12-14T08:51:30.684Z,-1.79
2022-12-14T08:52:30.660Z,-1.82
2022-12-14T08:53:31.133Z,-1.82
2022-12-14T08:54:30.601Z,-1.80
2022-12-14T08:55:35.183Z,-1.87
2022-12-14T08:56:30.533Z,-1.80
2022-12-14T08:57:30.507Z,-1.85
2022-12-14T08:58:30.475Z,-1.80
2022-12-14T09:00:00.336Z,-1.79
2022-12-14T09:00:30.484Z,-1.79
2022-12-14T09:01:34.004Z,-1.79
2022-12-14T09:02:30.526Z,-1.76
2022-12-14T09:03:30.642Z,-1.70
2022-12-14T09:04:30.297Z,-1.72
2022-12-14T09:05:30.260Z,-1.72
2022-12-14T09:06:30.233Z,-1.72
2022-12-14T09:07:30.204Z,-1.73
2022-12-14T09:08:30.185Z,-1.69
2022-12-14T09:09:30.139Z,-1.76
2022-12-14T09:10:30.113Z,-1.79
2022-12-14T09:11:30.076Z,-1.76
2022-12-14T09:12:30.053Z,-1.72
2022-12-14T09:13:30.601Z,-1.77
2022-12-14T09:14:29.989Z,-1.76
2022-12-14T09:15:29.955Z,-1.80
2022-12-14T09:16:29.993Z,-1.88
2022-12-14T09:17:29.902Z,-1.87
2022-12-14T09:18:30.148Z,-1.84
2022-12-14T09:19:29.835Z,-1.80
2022-12-14T09:20:29.811Z,-1.82
2022-12-14T09:21:29.772Z,-1.77
2022-12-14T09:22:29.751Z,-1.80
2022-12-14T09:23:30.169Z,-1.79
2022-12-14T09:24:29.686Z,-1.85
2022-12-14T09:25:29.651Z,-1.82
2022-12-14T09:26:29.638Z,-1.80
2022-12-14T09:27:29.595Z,-1.84
2022-12-14T09:28:29.566Z,-1.84
2022-12-14T09:29:29.530Z,-1.84
2022-12-14T09:30:29.505Z,-1.82
2022-12-14T09:31:29.538Z,-2.00
2022-12-14T09:32:29.447Z,-2.00
2022-12-14T09:33:29.824Z,-2.02
2022-12-14T09:34:29.379Z,-1.97
2022-12-14T09:35:29.348Z,-2.05
2022-12-14T09:36:29.324Z,-2.06
2022-12-14T09:37:29.286Z,-2.13
2022-12-14T09:38:29.256Z,-2.12
2022-12-14T09:39:29.225Z,-2.20
2022-12-14T09:40:29.202Z,-2.29
2022-12-14T09:41:29.163Z,-2.18
2022-12-14T09:42:29.140Z,-2.24
2022-12-14T09:43:29.683Z,-2.23
2022-12-14T09:44:29.086Z,-2.20
2022-12-14T09:45:29.154Z,-2.23
2022-12-14T09:46:29.013Z,-2.24
2022-12-14T09:47:28.988Z,-2.29
2022-12-14T09:48:29.360Z,-2.35
2022-12-14T09:49:28.930Z,-2.37
2022-12-14T09:50:28.894Z,-2.40
2022-12-14T09:51:29.016Z,-2.43
2022-12-14T09:52:28.837Z,-2.39
2022-12-14T09:53:29.325Z,-2.40
2022-12-14T09:54:28.771Z,-2.43
2022-12-14T09:55:28.746Z,-2.30
2022-12-14T09:56:28.711Z,-2.39
2022-12-14T09:57:28.683Z,-2.30
2022-12-14T09:58:29.036Z,-2.24
2022-12-14T09:59:28.624Z,-2.24
2022-12-14T10:00:28.592Z,-2.15
2022-12-14T10:01:28.628Z,-2.09
2022-12-14T10:02:31.280Z,-2.09
2022-12-14T10:03:29.266Z,-2.03
2022-12-14T10:04:28.542Z,-1.95
2022-12-14T10:05:28.439Z,-2.02
2022-12-14T10:06:28.405Z,-1.98
2022-12-14T10:07:33.885Z,-1.95
2022-12-14T10:08:28.876Z,-1.94
2022-12-14T10:09:28.317Z,-1.92
2022-12-14T10:10:28.288Z,-1.91
2022-12-14T10:11:28.257Z,-1.79
2022-12-14T10:12:33.945Z,-1.92
2022-12-14T10:13:28.588Z,-1.84
2022-12-14T10:14:28.173Z,-1.84
2022-12-14T10:15:28.130Z,-1.79
2022-12-14T10:16:28.115Z,-1.84
2022-12-14T10:17:28.076Z,-1.77
2022-12-14T10:18:57.476Z,-1.82
2022-12-14T10:19:28.009Z,-1.76
2022-12-14T10:20:27.983Z,-1.79
2022-12-14T10:21:27.952Z,-1.85
2022-12-14T10:22:27.921Z,-1.77
2022-12-14T10:23:27.895Z,-1.94
2022-12-14T10:24:27.856Z,-1.91
2022-12-14T10:25:27.835Z,-1.87
2022-12-14T10:26:27.798Z,-1.94
2022-12-14T10:27:34.154Z,-1.84
2022-12-14T10:28:28.088Z,-1.87
2022-12-14T10:29:27.713Z,-1.80
2022-12-14T10:30:27.676Z,-1.76
2022-12-14T10:31:27.781Z,-1.72
2022-12-14T10:32:27.612Z,-1.66
2022-12-14T10:33:27.587Z,-1.58
2022-12-14T10:34:27.553Z,-1.56
2022-12-14T10:35:27.527Z,-1.62
2022-12-14T10:36:27.497Z,-1.54
2022-12-14T10:37:27.463Z,-1.51
2022-12-14T10:38:27.847Z,-1.49
2022-12-14T10:39:27.406Z,-1.49
2022-12-14T10:40:33.800Z,-1.45
2022-12-14T10:41:27.341Z,-1.41
2022-12-14T10:42:27.310Z,-1.40
2022-12-14T10:43:27.286Z,-1.48
2022-12-14T10:44:27.254Z,-1.45
2022-12-14T10:45:42.803Z,-1.38
2022-12-14T10:46:27.226Z,-1.41
2022-12-14T10:47:27.165Z,-1.46
2022-12-14T10:48:27.589Z,-1.35
2022-12-14T10:49:27.102Z,-1.37
2022-12-14T10:50:27.072Z,-1.34
2022-12-14T10:51:27.039Z,-1.37
2022-12-14T10:52:27.006Z,-1.27
2022-12-14T10:53:26.980Z,-1.20
2022-12-14T10:54:26.947Z,-1.30
2022-12-14T10:55:26.921Z,-1.12
2022-12-14T10:56:26.907Z,-1.09
2022-12-14T10:57:26.860Z,-1.10
2022-12-14T10:58:27.120Z,-1.07
2022-12-14T10:59:26.798Z,-1.04
2022-12-14T11:00:26.766Z,-1.05
2022-12-14T11:01:26.887Z,-1.09
2022-12-14T11:02:26.851Z,-1.15
2022-12-14T11:03:26.747Z,-1.13
2022-12-14T11:04:26.648Z,-1.05
2022-12-14T11:05:31.079Z,-1.15
2022-12-14T11:06:26.584Z,-1.01
2022-12-14T11:07:26.559Z,-0.98
2022-12-14T11:08:26.824Z,-1.16
2022-12-14T11:09:26.502Z,-1.04
2022-12-14T11:10:26.471Z,-1.13
2022-12-14T11:11:26.504Z,-1.10
2022-12-14T11:12:26.404Z,-1.04
2022-12-14T11:13:26.379Z,-1.02
2022-12-14T11:14:26.340Z,-1.09
2022-12-14T11:15:26.318Z,-1.04
2022-12-14T11:16:31.856Z,-0.95
2022-12-14T11:17:26.407Z,-1.02
2022-12-14T11:18:26.599Z,-0.99
2022-12-14T11:19:26.195Z,-0.98
2022-12-14T11:20:26.165Z,-0.97
2022-12-14T11:21:26.132Z,-0.91
2022-12-14T11:22:26.100Z,-0.92
2022-12-14T11:23:26.074Z,-0.91
2022-12-14T11:24:26.044Z,-0.91
2022-12-14T11:25:26.014Z,-0.95
2022-12-14T11:26:25.978Z,-0.97
2022-12-14T11:27:25.956Z,-0.95
2022-12-14T11:28:27.342Z,-0.89
2022-12-14T11:29:25.893Z,-0.91
2022-12-14T11:30:25.931Z,-0.83
2022-12-14T11:31:25.894Z,-0.80
2022-12-14T11:32:25.803Z,-0.80
2022-12-14T11:33:25.774Z,-0.75
2022-12-14T11:34:25.738Z,-0.76
2022-12-14T11:35:25.713Z,-0.75
2022-12-14T11:36:25.677Z,-0.72
2022-12-14T11:37:25.653Z,-0.70
2022-12-14T11:38:25.775Z,-0.70
2022-12-14T11:39:25.594Z,-0.75
2022-12-14T11:40:25.564Z,-0.79
2022-12-14T11:41:25.536Z,-0.69
2022-12-14T11:42:25.497Z,-0.61
2022-12-14T11:43:25.470Z,-0.72
2022-12-14T11:44:25.442Z,-0.69
2022-12-14T11:45:25.419Z,-0.70
2022-12-14T11:46:25.404Z,-0.70
2022-12-14T11:47:25.353Z,-0.60
2022-12-14T11:48:25.318Z,-0.58
2022-12-14T11:49:25.293Z,-0.58
2022-12-14T11:50:25.261Z,-0.54
2022-12-14T11:51:25.230Z,-0.57
2022-12-14T11:52:25.196Z,-0.52
2022-12-14T11:53:25.177Z,-0.54
2022-12-14T11:54:25.155Z,-0.57
2022-12-14T11:55:27.266Z,-0.55
2022-12-14T11:56:25.084Z,-0.55
2022-12-14T11:57:25.052Z,-0.46
2022-12-14T11:58:25.020Z,-0.52
2022-12-14T11:59:24.993Z,-0.51
2022-12-14T12:00:24.964Z,-0.42
2022-12-14T12:01:25.042Z,-0.39
2022-12-14T12:02:24.935Z,-0.33
2022-12-14T12:03:24.929Z,-0.34
2022-12-14T12:04:24.848Z,-0.29
2022-12-14T12:05:24.815Z,-0.36
2022-12-14T12:06:24.780Z,-0.36
2022-12-14T12:07:24.753Z,-0.23
2022-12-14T12:08:24.715Z,-0.22
2022-12-14T12:09:24.696Z,-0.26
2022-12-14T12:10:24.656Z,-0.31
2022-12-14T12:11:24.657Z,-0.28
2022-12-14T12:12:24.602Z,-0.28
2022-12-14T12:13:24.580Z,-0.36
2022-12-14T12:14:24.541Z,-0.31
2022-12-14T12:15:24.690Z,-0.28
2022-12-14T12:16:24.598Z,-0.31
2022-12-14T12:17:24.451Z,-0.16
2022-12-14T12:18:24.419Z,-0.28
2022-12-14T12:19:24.398Z,-0.25
2022-12-14T12:20:24.362Z,-0.21
2022-12-14T12:21:24.337Z,-0.22
2022-12-14T12:22:24.309Z,-0.28
2022-12-14T12:23:24.274Z,-0.22
2022-12-14T12:24:24.243Z,-0.19
2022-12-14T12:25:27.595Z,-0.11
2022-12-14T12:26:24.180Z,-0.08
2022-12-14T12:27:24.169Z,-0.07
2022-12-14T12:28:24.124Z,-0.10
2022-12-14T12:29:24.095Z,-0.08
2022-12-14T12:30:24.064Z,-0.14
2022-12-14T12:31:24.058Z,-0.28
2022-12-14T12:32:24.007Z,-0.19
2022-12-14T12:33:23.976Z,-0.26
2022-12-14T12:34:23.940Z,-0.22
2022-12-14T12:35:23.917Z,-0.31
2022-12-14T12:36:24.514Z,-0.36
2022-12-14T12:37:26.702Z,-0.33
2022-12-14T12:38:23.828Z,-0.33
2022-12-14T12:39:23.796Z,-0.33
2022-12-14T12:40:23.764Z,-0.39
2022-12-14T12:41:23.736Z,-0.26
2022-12-14T12:42:23.701Z,-0.25
2022-12-14T12:43:23.677Z,-0.22
2022-12-14T12:44:23.644Z,-0.28
2022-12-14T12:45:23.616Z,-0.19
2022-12-14T12:46:23.616Z,-0.26
2022-12-14T12:47:28.263Z,-0.23
2022-12-14T12:48:23.525Z,-0.11
2022-12-14T12:49:23.503Z,-0.18
2022-12-14T12:50:23.465Z,-0.07
2022-12-14T12:51:23.435Z,-0.10
2022-12-14T12:52:23.409Z,-0.11